CLT TRACON Summary / KCLT TAF
CLT TRACON Summary:
Expect VFR conditions under mostly clear skies overnight. Surface winds will be from the southwest at 3-5kts, becoming mostly northwest at 3kts and frequently calm by 03z. Expect LGT ocnl MOD turbulence below 100 in the northern portions of the TRACON airspace.

Updated:10/25/2014 7:31 PM
CLT Terminal Aerodrome Forecast:

FTUS42 KGSP 260232 AAA
TAFCLT
TAF AMD
KCLT 260232Z 2603/2624 26004KT P6SM FEW250
     FM260500 30003KT P6SM FEW250
     FM261500 31008KT P6SM SKC=
CLT TRACON Area Remark:
NONE.
Convective Gate Forecast / Collaborative Convective Forecast Product / Vertical Wind Profile
Convective Gate Forecast
-->
AIRMETs & SIGMETS/ Southeast Radar loop / Satellite Image (click on image to enlarge)

Southeast Radar Loop

 



USA.gov is the U.S. government's official web portal to all federal, state and local government web resources and services.